Time;durP1;ratioP1;P1;durP2;ratioP2;P2;SDS_P1;SDS_P2;PMS_P1;PMS_P2;Temp;Humidity;BMP_temperature;BMP_pressure;BME280_temperature;BME280_humidity;BME280_pressure;Samples;Min_cycle;Max_cycle;Signal;HPM_P1;HPM_P2
2020/12/31 00:02:59;;;;;;;7.87;2.57;;;;;;;8.22;100.00;96202.97;5521798;23;20717;-93
2020/12/31 00:05:28;;;;;;;13.20;2.90;;;;;;;8.19;100.00;96201.44;5075489;28;20204;-96
2020/12/31 00:10:35;;;;;;;6.77;3.00;;;;;;;7.97;100.00;96214.91;5090272;22;20222;-96
2020/12/31 00:13:02;;;;;;;7.37;2.60;;;;;;;7.84;100.00;96213.44;5074279;28;20213;-96
2020/12/31 00:15:30;;;;;;;7.73;2.97;;;;;;;7.91;100.00;96202.41;5372023;22;20241;-95
2020/12/31 00:17:58;;;;;;;9.97;3.17;;;;;;;7.86;100.00;96216.75;5074121;28;20201;-96
2020/12/31 00:20:25;;;;;;;4.13;2.20;;;;;;;7.86;100.00;96213.28;5076190;28;20229;-96
2020/12/31 00:25:23;;;;;;;5.60;2.30;;;;;;;7.94;100.00;96210.78;5047513;28;20233;-94
2020/12/31 00:27:50;;;;;;;5.23;2.23;;;;;;;7.83;100.00;96209.19;5048883;28;20222;-96
2020/12/31 00:30:19;;;;;;;12.80;4.33;;;;;;;7.79;100.00;96209.59;5051229;28;20228;-95
2020/12/31 00:32:46;;;;;;;6.97;2.77;;;;;;;7.83;100.00;96213.59;5044597;28;20225;-94
2020/12/31 00:35:18;;;;;;;10.17;3.07;;;;;;;7.82;100.00;96214.53;5049130;28;20664;-95
2020/12/31 00:37:45;;;;;;;14.27;2.93;;;;;;;7.83;100.00;96217.03;5054310;28;20201;-95
2020/12/31 00:40:12;;;;;;;10.93;3.33;;;;;;;7.76;100.00;96215.94;5053901;28;20222;-96
2020/12/31 00:42:39;;;;;;;13.20;2.63;;;;;;;7.88;100.00;96210.53;5048636;28;20222;-95
2020/12/31 01:08:17;;;;;;;11.53;3.67;;;;;;;7.79;100.00;96214.81;5279603;22;20230;-95
2020/12/31 02:16:26;;;;;;;8.00;3.50;;;;;;;7.57;100.00;96197.69;5098604;22;20304;-95
2020/12/31 02:18:55;;;;;;;9.17;3.60;;;;;;;7.75;100.00;96203.81;5073254;28;20269;-94
2020/12/31 02:21:25;;;;;;;10.80;3.93;;;;;;;7.82;100.00;96191.81;5075336;28;20232;-96
2020/12/31 02:23:53;;;;;;;7.77;3.10;;;;;;;7.83;100.00;96190.03;5079450;28;20205;-94
2020/12/31 02:26:21;;;;;;;11.07;3.50;;;;;;;7.82;100.00;96201.47;5078074;28;20202;-95
2020/12/31 02:28:48;;;;;;;7.47;4.67;;;;;;;7.91;100.00;96186.72;5078885;28;20190;-94
2020/12/31 02:31:19;;;;;;;13.60;4.00;;;;;;;7.86;100.00;96192.34;5078675;28;20262;-96
2020/12/31 07:15:50;;;;;;;23.93;17.70;;;;;;;8.63;100.00;96166.78;5744897;22;20761;-95
2020/12/31 07:21:40;;;;;;;13.00;10.00;;;;;;;8.69;100.00;96161.72;5532682;22;20234;-95
2020/12/31 07:24:55;;;;;;;12.63;10.33;;;;;;;8.72;100.00;96145.72;5228853;22;20237;-96
2020/12/31 07:27:40;;;;;;;12.37;7.33;;;;;;;8.80;100.00;96145.00;5546009;22;20217;-96
2020/12/31 07:46:01;;;;;;;12.97;8.17;;;;;;;9.14;100.00;96141.63;6276996;22;994510;-96
2020/12/31 07:48:34;;;;;;;13.13;8.27;;;;;;;9.16;100.00;96140.50;6228559;22;20257;-95
2020/12/31 07:51:33;;;;;;;7.60;5.73;;;;;;;9.19;100.00;96140.22;6206733;22;20201;-95
2020/12/31 07:56:48;;;;;;;10.03;7.40;;;;;;;9.12;100.00;96136.56;6207147;22;21370;-95
2020/12/31 08:02:10;;;;;;;14.07;8.17;;;;;;;9.15;100.00;96122.31;6225618;22;21072;-94
2020/12/31 08:13:37;;;;;;;11.13;6.50;;;;;;;9.25;100.00;96129.13;6231411;22;20197;-95
2020/12/31 08:16:35;;;;;;;12.00;7.30;;;;;;;9.22;100.00;96118.13;6249464;23;20169;-96
2020/12/31 08:19:16;;;;;;;10.83;6.83;;;;;;;9.46;100.00;96117.44;6219994;22;20205;-96
2020/12/31 08:21:45;;;;;;;10.17;7.47;;;;;;;9.41;100.00;96117.06;6240427;23;20208;-96
2020/12/31 08:24:25;;;;;;;12.23;7.90;;;;;;;9.39;100.00;96111.19;6239529;23;20168;-95
2020/12/31 08:27:08;;;;;;;10.80;6.40;;;;;;;9.39;100.00;96114.63;6241366;23;20165;-96
2020/12/31 08:33:00;;;;;;;14.13;8.27;;;;;;;9.45;100.00;96111.34;6240571;23;20200;-96
2020/12/31 08:35:33;;;;;;;8.23;6.37;;;;;;;9.45;100.00;96118.41;6236781;23;20189;-95
2020/12/31 08:38:08;;;;;;;11.17;6.90;;;;;;;9.54;100.00;96114.84;6237496;23;20172;-96
2020/12/31 08:40:45;;;;;;;9.23;6.90;;;;;;;9.58;100.00;96110.94;6232853;23;20157;-96
2020/12/31 08:43:20;;;;;;;10.27;4.83;;;;;;;9.65;100.00;96104.09;6242253;23;20208;-96
2020/12/31 08:45:52;;;;;;;11.73;4.80;;;;;;;9.78;100.00;96095.78;6236930;23;20166;-93
2020/12/31 09:29:10;;;;;;;10.97;4.43;;;;;;;10.08;100.00;95999.91;6233185;22;20206;-96
2020/12/31 09:38:43;;;;;;;9.70;5.67;;;;;;;10.38;100.00;95985.31;6172959;22;20298;-96
2020/12/31 09:44:02;;;;;;;11.60;5.13;;;;;;;10.69;100.00;95982.84;6219349;22;20254;-95
2020/12/31 09:46:34;;;;;;;12.70;7.77;;;;;;;10.65;100.00;95980.72;6167017;23;21429;-96
2020/12/31 09:49:10;;;;;;;12.60;5.50;;;;;;;10.72;100.00;95979.06;6148417;23;20228;-94
2020/12/31 09:51:38;;;;;;;8.73;4.70;;;;;;;10.72;100.00;95973.81;6171811;23;20206;-96
2020/12/31 10:02:31;;;;;;;11.37;6.17;;;;;;;10.69;100.00;95961.00;6220556;22;20563;-96
2020/12/31 10:07:38;;;;;;;7.67;4.90;;;;;;;10.68;100.00;95959.38;6226381;22;20199;-95
2020/12/31 10:10:12;;;;;;;9.03;7.60;;;;;;;10.67;100.00;95949.84;6263834;22;20243;-96
2020/12/31 10:16:09;;;;;;;8.20;5.27;;;;;;;10.75;100.00;95923.53;6175678;23;21552;31
2020/12/31 10:21:24;;;;;;;4.10;3.70;;;;;;;10.91;100.00;95912.13;6238242;22;20418;-96
2020/12/31 10:29:11;;;;;;;8.97;4.83;;;;;;;11.45;100.00;95885.94;6204138;22;20209;31
2020/12/31 10:31:42;;;;;;;7.77;3.80;;;;;;;11.62;100.00;95889.28;6206092;23;20199;-96
2020/12/31 10:36:58;;;;;;;9.80;5.57;;;;;;;11.49;100.00;95874.06;6247357;22;20192;-96
2020/12/31 10:42:11;;;;;;;7.10;4.20;;;;;;;11.38;100.00;95872.66;6253118;22;20205;-96
2020/12/31 10:44:42;;;;;;;7.63;3.43;;;;;;;11.40;100.00;95869.88;6260114;22;20277;-96
2020/12/31 10:47:09;;;;;;;8.13;3.47;;;;;;;11.36;100.00;95860.66;6263217;22;20323;-95
2020/12/31 10:52:23;;;;;;;7.57;4.57;;;;;;;11.35;100.00;95857.19;6220960;22;20212;-95
2020/12/31 10:57:31;;;;;;;12.40;6.77;;;;;;;11.69;100.00;95849.94;6268338;22;20213;-96
2020/12/31 10:59:58;;;;;;;9.87;4.43;;;;;;;11.80;100.00;95842.44;6268494;23;20203;-95
2020/12/31 11:02:27;;;;;;;9.47;4.30;;;;;;;11.87;100.00;95835.50;6263510;23;20614;-96
2020/12/31 11:05:09;;;;;;;9.77;7.63;;;;;;;11.90;100.00;95823.78;6271432;22;20221;-95
2020/12/31 11:07:41;;;;;;;9.80;4.97;;;;;;;11.99;100.00;95816.66;6265147;23;20169;-96
2020/12/31 11:10:21;;;;;;;10.97;5.30;;;;;;;12.09;100.00;95811.97;6269098;22;20141;-96
2020/12/31 11:12:48;;;;;;;5.70;4.63;;;;;;;12.11;100.00;95808.13;6262078;22;20165;-96
2020/12/31 11:18:33;;;;;;;9.57;5.27;;;;;;;12.19;100.00;95796.69;6231635;22;20206;-95
2020/12/31 11:21:41;;;;;;;5.67;3.57;;;;;;;12.25;100.00;95789.88;6205700;23;20178;-95
2020/12/31 11:29:22;;;;;;;6.87;2.90;;;;;;;12.25;100.00;95780.16;6241528;22;20233;-96
2020/12/31 11:31:49;;;;;;;5.43;3.23;;;;;;;12.23;100.00;95773.47;6219602;22;20216;-94
2020/12/31 11:37:34;;;;;;;5.63;3.63;;;;;;;12.19;100.00;95749.25;6220541;22;20206;-96
2020/12/31 11:48:52;;;;;;;8.60;5.93;;;;;;;12.07;100.00;95746.25;6234705;22;20205;-96
2020/12/31 12:06:10;;;;;;;14.73;8.80;;;;;;;11.97;100.00;95740.44;6202593;22;20216;-96
2020/12/31 12:08:39;;;;;;;15.20;8.57;;;;;;;11.92;100.00;95734.91;6238316;22;20146;-94
2020/12/31 12:22:54;;;;;;;11.13;7.87;;;;;;;12.11;100.00;95723.81;6211742;22;20228;-96
2020/12/31 12:39:42;;;;;;;18.10;11.10;;;;;;;12.11;100.00;95712.47;6221676;22;21122;31
2020/12/31 12:42:10;;;;;;;12.47;8.47;;;;;;;12.24;100.00;95712.66;6144957;23;20209;-96
2020/12/31 12:50:17;;;;;;;11.40;3.90;;;;;;;12.56;100.00;95721.97;6179624;22;20213;-96
2020/12/31 12:52:47;;;;;;;8.07;3.13;;;;;;;12.66;100.00;95731.44;6260888;23;20205;-95
2020/12/31 12:55:37;;;;;;;14.00;9.40;;;;;;;12.74;100.00;95712.88;6207281;22;20208;31
2020/12/31 12:58:04;;;;;;;18.83;7.83;;;;;;;12.73;100.00;95709.41;6204799;22;20213;-96
2020/12/31 13:03:07;;;;;;;16.87;7.53;;;;;;;12.89;100.00;95708.38;6209803;22;20247;-96
2020/12/31 13:10:46;;;;;;;10.73;5.43;;;;;;;12.96;100.00;95688.16;6216495;22;20434;-96
2020/12/31 13:13:13;;;;;;;13.83;4.97;;;;;;;12.79;100.00;95686.78;6210096;23;20143;-96
2020/12/31 13:15:42;;;;;;;11.03;5.87;;;;;;;12.79;100.00;95690.22;6205767;23;20195;-96
2020/12/31 14:00:54;;;;;;;7.83;4.83;;;;;;;12.01;100.00;95691.66;6196465;22;20184;-96
2020/12/31 14:06:07;;;;;;;7.23;5.17;;;;;;;12.05;100.00;95700.03;6259031;23;20212;-96
2020/12/31 14:08:34;;;;;;;15.13;10.07;;;;;;;12.08;100.00;95695.22;6258386;22;20173;-96
2020/12/31 14:11:08;;;;;;;7.07;2.70;;;;;;;12.24;100.00;95698.69;6264215;23;20256;-96
2020/12/31 14:13:37;;;;;;;9.90;3.63;;;;;;;11.97;100.00;95697.50;6267432;23;20221;-96
2020/12/31 14:21:30;;;;;;;5.63;3.40;;;;;;;11.51;100.00;95690.50;6240596;22;20194;-96
2020/12/31 14:27:04;;;;;;;8.37;2.67;;;;;;;11.41;100.00;95692.56;6254799;22;20211;-96
2020/12/31 14:55:13;;;;;;;8.63;3.90;;;;;;;11.06;100.00;95728.19;6239718;22;20183;-96
2020/12/31 14:57:41;;;;;;;6.40;4.17;;;;;;;11.03;100.00;95731.16;6203286;22;20225;-96
2020/12/31 15:02:47;;;;;;;12.07;9.00;;;;;;;10.97;100.00;95727.41;6218816;22;20202;-96
2020/12/31 15:05:18;;;;;;;5.80;3.80;;;;;;;10.88;100.00;95728.47;6227401;23;20178;-96
2020/12/31 15:07:50;;;;;;;19.80;16.97;;;;;;;10.76;100.00;95724.56;6226765;23;20580;-96
2020/12/31 15:10:18;;;;;;;8.77;7.90;;;;;;;10.68;100.00;95731.53;6227598;22;20212;-95
2020/12/31 15:12:46;;;;;;;6.67;5.03;;;;;;;10.58;100.00;95727.47;6228488;22;20239;-96
2020/12/31 15:20:53;;;;;;;6.63;4.63;;;;;;;10.58;100.00;95743.22;6227788;22;20216;-96
2020/12/31 15:23:25;;;;;;;7.13;5.73;;;;;;;10.56;100.00;95751.28;6269475;22;20145;-96
2020/12/31 15:26:15;;;;;;;8.80;5.30;;;;;;;10.55;100.00;95757.53;6269581;22;20177;-95
2020/12/31 15:31:41;;;;;;;9.57;5.70;;;;;;;10.52;100.00;95792.03;6227120;22;20206;-96
2020/12/31 15:37:10;;;;;;;6.70;3.73;;;;;;;10.46;100.00;95797.97;6231773;22;20233;-96
2020/12/31 15:39:37;;;;;;;8.10;2.97;;;;;;;10.45;100.00;95806.81;6233297;23;20170;-96
2020/12/31 15:44:40;;;;;;;7.70;4.23;;;;;;;10.29;100.00;95793.72;6216833;22;20201;-96
2020/12/31 15:47:27;;;;;;;7.70;4.87;;;;;;;10.29;100.00;95801.59;6223085;23;20189;-95
2020/12/31 15:49:56;;;;;;;14.67;10.17;;;;;;;10.13;100.00;95797.19;6216366;23;20169;-96
2020/12/31 15:52:23;;;;;;;21.53;16.70;;;;;;;10.03;100.00;95804.44;6217237;23;20167;-95
2020/12/31 15:54:50;;;;;;;21.07;11.47;;;;;;;10.03;100.00;95807.88;6217863;23;20201;-95
2020/12/31 15:57:18;;;;;;;10.60;8.63;;;;;;;9.93;100.00;95812.47;6222236;23;20170;-96
2020/12/31 15:59:46;;;;;;;12.60;7.53;;;;;;;9.92;100.00;95816.91;6224109;23;20165;-96
2020/12/31 16:02:14;;;;;;;53.83;28.07;;;;;;;10.15;100.00;95822.31;6242556;22;20253;-96
2020/12/31 16:04:42;;;;;;;12.97;7.37;;;;;;;10.03;100.00;95807.88;6257152;22;20197;-96
2020/12/31 16:07:10;;;;;;;9.27;6.17;;;;;;;10.21;100.00;95811.13;6259545;22;20213;-96
2020/12/31 16:09:40;;;;;;;10.83;5.40;;;;;;;10.14;100.00;95810.16;6246016;22;20196;-96
2020/12/31 16:12:23;;;;;;;8.40;5.87;;;;;;;10.04;100.00;95804.25;6264540;23;20165;-96
2020/12/31 16:20:41;;;;;;;7.00;4.47;;;;;;;9.66;100.00;95816.25;6254132;22;20185;-95
2020/12/31 16:26:52;;;;;;;5.37;4.23;;;;;;;9.37;100.00;95817.56;6245516;22;20208;-96
2020/12/31 16:29:23;;;;;;;131.50;89.93;;;;;;;9.22;100.00;95816.56;6254045;22;20219;-95
2020/12/31 16:31:51;;;;;;;91.07;57.00;;;;;;;9.19;100.00;95807.19;6256761;23;20174;-95
2020/12/31 16:34:18;;;;;;;12.03;10.07;;;;;;;9.46;100.00;95815.78;6253698;23;20189;-92
2020/12/31 16:36:46;;;;;;;41.73;29.63;;;;;;;9.35;100.00;95816.06;6247286;23;20165;-96
2020/12/31 16:39:13;;;;;;;28.73;21.53;;;;;;;9.28;100.00;95813.25;6247735;23;20180;-91
2020/12/31 16:41:39;;;;;;;25.17;20.23;;;;;;;9.15;100.00;95826.88;6251704;23;20188;-90
2020/12/31 16:44:06;;;;;;;66.37;52.73;;;;;;;9.09;100.00;95817.00;6250381;23;20518;-92
2020/12/31 16:46:33;;;;;;;246.93;148.43;;;;;;;9.14;100.00;95806.03;6249555;23;20185;-93
2020/12/31 16:49:00;;;;;;;106.23;60.97;;;;;;;9.22;100.00;95817.38;6250406;23;20165;-94
2020/12/31 16:51:29;;;;;;;131.57;86.00;;;;;;;9.13;100.00;95825.38;6249067;23;20162;-96
2020/12/31 16:53:57;;;;;;;39.20;26.27;;;;;;;8.99;100.00;95845.16;6250604;23;20252;-95
2020/12/31 16:56:24;;;;;;;20.90;12.07;;;;;;;8.95;100.00;95847.28;6255576;23;20162;-94
2020/12/31 16:58:51;;;;;;;7.17;4.30;;;;;;;8.86;100.00;95844.78;6263348;23;20695;-96
2020/12/31 17:01:23;;;;;;;4.57;3.43;;;;;;;8.83;100.00;95845.91;6252022;23;20226;-91
2020/12/31 17:03:53;;;;;;;31.17;22.27;;;;;;;8.66;100.00;95838.97;6249637;23;20165;-95
2020/12/31 17:10:06;;;;;;;22.80;17.40;;;;;;;8.61;100.00;95855.16;6233604;23;20627;-94
2020/12/31 17:12:32;;;;;;;32.47;23.97;;;;;;;8.53;100.00;95860.38;6248665;23;20527;-93
2020/12/31 17:14:59;;;;;;;100.33;71.47;;;;;;;8.49;100.00;95866.91;6249824;23;20189;-94
2020/12/31 17:17:26;;;;;;;50.17;39.80;;;;;;;8.44;100.00;95859.50;6248756;23;20168;-95
2020/12/31 17:19:53;;;;;;;12.00;9.20;;;;;;;8.43;100.00;95867.50;6247128;23;20165;-96
2020/12/31 17:22:20;;;;;;;4.73;4.30;;;;;;;8.36;100.00;95869.91;6246557;22;20221;-95
2020/12/31 17:24:47;;;;;;;5.50;3.80;;;;;;;8.38;100.00;95867.13;6247797;23;20170;-96
2020/12/31 17:27:15;;;;;;;9.20;3.90;;;;;;;8.30;100.00;95871.31;6250373;23;20174;-92
2020/12/31 17:29:43;;;;;;;7.17;3.00;;;;;;;8.26;100.00;95875.22;6246287;23;20660;-96
2020/12/31 17:32:11;;;;;;;6.37;3.87;;;;;;;8.26;100.00;95880.47;6248584;23;20189;-95
2020/12/31 17:34:38;;;;;;;7.70;6.80;;;;;;;8.28;100.00;95883.75;6247718;23;20193;-94
2020/12/31 17:37:05;;;;;;;6.67;4.27;;;;;;;8.42;100.00;95877.16;6245570;23;20508;-91
2020/12/31 17:39:32;;;;;;;8.97;3.43;;;;;;;8.43;100.00;95870.94;6245851;23;20176;-96
2020/12/31 17:41:59;;;;;;;5.20;3.67;;;;;;;8.36;100.00;95874.31;6246042;23;20639;-94
2020/12/31 17:44:27;;;;;;;66.90;36.83;;;;;;;8.30;100.00;95866.09;6233914;23;20169;-92
2020/12/31 17:46:54;;;;;;;129.53;68.90;;;;;;;8.07;100.00;95872.78;6249603;23;20185;-93
2020/12/31 17:49:20;;;;;;;39.17;25.80;;;;;;;7.84;100.00;95860.22;6250531;23;20185;-96
2020/12/31 17:51:47;;;;;;;18.17;13.83;;;;;;;7.88;100.00;95867.75;6248431;23;20172;-94
2020/12/31 17:54:15;;;;;;;29.37;20.77;;;;;;;7.71;100.00;95869.41;6245195;23;20189;-95
2020/12/31 17:56:48;;;;;;;33.87;22.67;;;;;;;7.78;100.00;95875.69;6247353;23;20166;-95
2020/12/31 17:59:15;;;;;;;33.13;23.90;;;;;;;7.94;100.00;95875.00;6252648;23;20166;-96
2020/12/31 18:01:43;;;;;;;32.40;23.93;;;;;;;7.72;100.00;95879.72;6252393;23;20181;-96
2020/12/31 18:04:10;;;;;;;32.50;24.00;;;;;;;7.67;100.00;95874.13;6250039;23;20702;-94
2020/12/31 18:06:40;;;;;;;34.73;25.50;;;;;;;7.72;100.00;95882.31;6247514;23;20238;-94
2020/12/31 18:09:07;;;;;;;51.33;38.30;;;;;;;7.64;100.00;95874.41;6249163;23;20180;-92
2020/12/31 18:11:34;;;;;;;41.20;29.07;;;;;;;7.53;100.00;95877.28;6245753;23;20177;-89
2020/12/31 18:14:25;;;;;;;90.87;67.20;;;;;;;7.46;100.00;95882.28;6245514;23;20170;-88
2020/12/31 18:16:56;;;;;;;49.70;39.70;;;;;;;7.29;100.00;95878.66;6214715;23;20190;-87
2020/12/31 18:19:23;;;;;;;36.03;29.43;;;;;;;7.41;100.00;95883.66;6214077;23;20193;-87
2020/12/31 18:21:50;;;;;;;28.70;25.10;;;;;;;7.20;100.00;95882.16;6214278;23;20194;-88
2020/12/31 18:24:17;;;;;;;23.57;17.37;;;;;;;7.33;100.00;95881.81;6214516;23;20253;-88
2020/12/31 18:26:44;;;;;;;14.43;12.23;;;;;;;7.30;100.00;95885.53;6214602;23;20178;-89
2020/12/31 18:29:11;;;;;;;10.77;6.93;;;;;;;7.39;100.00;95892.50;6214580;23;20240;-87
2020/12/31 18:31:38;;;;;;;4.87;4.10;;;;;;;7.32;100.00;95895.84;6215007;23;20181;-87
2020/12/31 18:34:07;;;;;;;17.77;11.67;;;;;;;7.33;100.00;95898.31;6214868;23;20194;-88
2020/12/31 18:36:33;;;;;;;15.80;12.17;;;;;;;7.21;100.00;95898.69;6215128;23;20213;-87
2020/12/31 18:39:00;;;;;;;25.50;20.03;;;;;;;6.94;100.00;95897.72;6214887;23;20173;-88
2020/12/31 18:41:31;;;;;;;16.27;12.03;;;;;;;7.00;100.00;95898.94;6216858;23;20523;-93
2020/12/31 18:43:58;;;;;;;9.63;6.70;;;;;;;6.97;100.00;95894.00;6217834;23;20204;-93
2020/12/31 18:46:26;;;;;;;6.03;3.73;;;;;;;6.94;100.00;95894.28;6203674;23;20177;-89
2020/12/31 18:48:53;;;;;;;6.73;5.30;;;;;;;7.02;100.00;95887.34;6214837;23;20957;-89
2020/12/31 18:51:21;;;;;;;60.23;45.33;;;;;;;6.83;100.00;95890.91;6214267;23;20202;-87
2020/12/31 18:53:48;;;;;;;27.33;22.60;;;;;;;6.77;100.00;95888.03;6214506;23;20170;-90
2020/12/31 18:56:15;;;;;;;7.30;3.80;;;;;;;6.83;100.00;95890.91;6214347;23;20605;-89
2020/12/31 18:58:41;;;;;;;23.40;16.60;;;;;;;6.95;100.00;95898.53;6214580;23;20162;-88
2020/12/31 19:01:08;;;;;;;10.73;7.40;;;;;;;7.05;100.00;95899.31;6208632;23;20669;-88
2020/12/31 19:03:35;;;;;;;4.10;3.43;;;;;;;7.17;100.00;95897.31;6208021;23;20245;-92
2020/12/31 19:06:03;;;;;;;4.30;3.70;;;;;;;7.17;100.00;95894.69;6208942;23;20189;-89
2020/12/31 19:08:30;;;;;;;19.73;17.13;;;;;;;6.98;100.00;95898.25;6201768;23;20503;-87
2020/12/31 19:10:57;;;;;;;27.73;21.27;;;;;;;6.88;100.00;95895.69;6213180;23;20162;-90
2020/12/31 19:13:24;;;;;;;27.83;20.80;;;;;;;6.66;100.00;95891.66;6201685;23;20193;-89
2020/12/31 19:15:51;;;;;;;13.33;11.43;;;;;;;6.82;100.00;95886.66;6213998;23;20524;-88
2020/12/31 19:18:18;;;;;;;26.50;20.67;;;;;;;6.55;100.00;95897.06;6213941;23;20249;-90
2020/12/31 19:20:45;;;;;;;23.50;18.17;;;;;;;6.57;100.00;95903.75;6214429;23;20185;-89
2020/12/31 19:23:11;;;;;;;24.13;15.93;;;;;;;6.55;100.00;95904.91;6214339;23;20231;-90
2020/12/31 19:25:39;;;;;;;21.03;16.50;;;;;;;6.64;100.00;95917.06;6215374;23;20174;-91
2020/12/31 19:28:06;;;;;;;25.10;17.67;;;;;;;6.80;100.00;95916.47;6214384;23;20496;-88
2020/12/31 19:30:33;;;;;;;19.13;13.53;;;;;;;6.53;100.00;95910.25;6213612;23;20166;-88
2020/12/31 19:33:00;;;;;;;17.80;12.90;;;;;;;6.29;100.00;95908.09;6214260;23;20653;-90
2020/12/31 19:35:27;;;;;;;34.20;25.43;;;;;;;6.46;100.00;95911.78;6213526;23;20640;-94
2020/12/31 19:37:54;;;;;;;44.17;33.60;;;;;;;6.31;100.00;95908.81;6214686;23;20185;-90
2020/12/31 19:40:21;;;;;;;44.87;36.07;;;;;;;6.45;100.00;95917.16;6214891;23;20690;-91
2020/12/31 19:42:50;;;;;;;37.63;29.90;;;;;;;6.64;100.00;95920.50;6214745;23;20193;-91
2020/12/31 19:45:19;;;;;;;43.43;32.33;;;;;;;6.67;100.00;95927.25;6215196;23;20170;-91
2020/12/31 19:47:45;;;;;;;41.03;27.50;;;;;;;6.48;100.00;95924.69;6214037;23;20174;-89
2020/12/31 19:50:14;;;;;;;38.30;30.47;;;;;;;6.57;100.00;95926.44;6214921;23;20225;-89
2020/12/31 19:52:48;;;;;;;38.57;31.27;;;;;;;6.51;100.00;95929.63;6214341;23;20201;-88
2020/12/31 19:55:15;;;;;;;27.93;21.30;;;;;;;6.53;100.00;95927.69;6213753;23;20186;-89
2020/12/31 19:57:45;;;;;;;22.30;16.47;;;;;;;6.38;100.00;95924.72;6213591;23;20181;-88
2020/12/31 20:00:17;;;;;;;16.20;11.40;;;;;;;6.40;100.00;95925.38;6214212;23;20209;-89
2020/12/31 20:02:44;;;;;;;10.67;7.53;;;;;;;6.30;100.00;95924.59;6214613;23;20202;-89
2020/12/31 20:05:12;;;;;;;8.03;5.77;;;;;;;6.26;100.00;95925.84;6214243;23;20177;-89
2020/12/31 20:07:40;;;;;;;8.57;5.20;;;;;;;6.29;100.00;95923.75;6213758;23;20174;-90
2020/12/31 20:10:08;;;;;;;11.30;7.47;;;;;;;6.28;100.00;95926.53;6215081;23;20174;-94
2020/12/31 20:12:36;;;;;;;15.80;11.80;;;;;;;6.25;100.00;95929.41;6215417;23;20718;-89
2020/12/31 20:15:04;;;;;;;13.73;9.97;;;;;;;6.32;100.00;95927.88;6214466;23;20253;-89
2020/12/31 20:17:31;;;;;;;5.17;4.60;;;;;;;6.41;100.00;95927.06;6214048;23;20181;-89
2020/12/31 20:19:58;;;;;;;5.53;4.00;;;;;;;6.51;100.00;95934.84;6214129;23;20171;-89
2020/12/31 20:22:25;;;;;;;7.97;3.97;;;;;;;6.49;100.00;95932.38;6213592;23;20556;-89
2020/12/31 20:24:52;;;;;;;5.73;3.63;;;;;;;6.41;100.00;95934.88;6214281;23;20515;-89
2020/12/31 20:27:20;;;;;;;29.87;21.83;;;;;;;6.33;100.00;95940.78;6213913;23;20576;-88
2020/12/31 20:29:46;;;;;;;55.23;40.73;;;;;;;5.98;100.00;95951.81;6214796;23;20317;-90
2020/12/31 20:32:13;;;;;;;43.13;34.77;;;;;;;5.75;100.00;95946.03;6213785;23;20213;-89
2020/12/31 20:34:41;;;;;;;15.73;12.27;;;;;;;5.70;100.00;95953.44;6213615;23;20190;-86
2020/12/31 20:37:10;;;;;;;8.20;6.23;;;;;;;5.80;100.00;95954.25;6213946;23;20169;-87
2020/12/31 20:39:37;;;;;;;7.77;4.37;;;;;;;5.88;100.00;95946.56;6214317;23;20193;-89
2020/12/31 20:42:07;;;;;;;4.87;4.47;;;;;;;5.89;100.00;95942.19;6215113;23;20174;-87
2020/12/31 20:44:34;;;;;;;12.10;6.47;;;;;;;5.66;100.00;95936.41;6215579;23;20181;-87
2020/12/31 20:47:00;;;;;;;28.00;18.00;;;;;;;5.55;100.00;95950.41;6215692;23;20624;-88
2020/12/31 20:49:27;;;;;;;45.03;27.57;;;;;;;5.51;100.00;95946.44;6215551;23;20248;-87
2020/12/31 20:51:59;;;;;;;8.27;5.87;;;;;;;5.51;100.00;95949.03;6215422;23;20185;-88
2020/12/31 20:54:27;;;;;;;28.87;19.67;;;;;;;5.67;100.00;95956.31;6203198;23;20189;-89
2020/12/31 20:56:54;;;;;;;18.93;10.77;;;;;;;5.69;100.00;95955.22;6216187;23;20174;-91
2020/12/31 20:59:21;;;;;;;14.83;11.27;;;;;;;5.81;100.00;95960.28;6216233;23;20189;-89
2020/12/31 21:01:48;;;;;;;10.83;7.07;;;;;;;5.55;100.00;95958.22;6216244;23;20197;-89
2020/12/31 21:04:15;;;;;;;15.30;12.10;;;;;;;5.82;100.00;95957.56;6216629;23;20217;-90
2020/12/31 21:06:42;;;;;;;185.67;113.97;;;;;;;5.62;100.00;95958.50;6215978;23;20177;-89
2020/12/31 21:09:09;;;;;;;77.63;51.47;;;;;;;5.73;100.00;95968.81;6215710;23;20686;-90
2020/12/31 21:11:36;;;;;;;61.10;43.70;;;;;;;5.49;100.00;95966.56;6215214;23;20174;-89
2020/12/31 21:14:03;;;;;;;61.13;41.77;;;;;;;5.48;100.00;95970.16;6214848;23;20174;-90
2020/12/31 21:16:31;;;;;;;97.33;61.60;;;;;;;5.58;100.00;95975.38;6215290;23;20667;-90
2020/12/31 21:18:57;;;;;;;63.53;45.07;;;;;;;5.62;100.00;95974.16;6215938;23;20170;-90
2020/12/31 21:21:24;;;;;;;58.47;42.10;;;;;;;5.65;100.00;95981.72;6215101;23;20175;-90
2020/12/31 21:23:51;;;;;;;50.27;39.07;;;;;;;5.57;100.00;95981.53;6216236;23;20829;-91
2020/12/31 21:26:19;;;;;;;47.47;34.90;;;;;;;5.61;100.00;95967.28;6215246;23;20169;-90
2020/12/31 21:28:48;;;;;;;44.80;33.17;;;;;;;5.63;100.00;95970.56;6215755;23;20177;-91
2020/12/31 21:31:15;;;;;;;39.00;30.90;;;;;;;5.33;100.00;95974.06;6215276;23;20170;-90
2020/12/31 21:33:42;;;;;;;40.13;32.10;;;;;;;5.43;100.00;95978.34;6215684;23;20173;-91
2020/12/31 21:36:14;;;;;;;31.33;23.70;;;;;;;5.43;100.00;95977.53;6215203;23;20194;-91
2020/12/31 21:38:41;;;;;;;15.43;11.90;;;;;;;5.40;100.00;95978.66;6215550;23;20162;-90
2020/12/31 21:41:08;;;;;;;13.63;8.60;;;;;;;5.52;100.00;95973.31;6215801;23;20592;-91
2020/12/31 21:43:36;;;;;;;8.83;6.73;;;;;;;5.36;100.00;95973.81;6215257;23;20174;-90
2020/12/31 21:46:03;;;;;;;5.83;4.87;;;;;;;5.53;100.00;95973.16;6215295;23;20177;-92
2020/12/31 21:48:29;;;;;;;22.40;16.97;;;;;;;5.60;100.00;95982.09;6216351;23;20253;-90
2020/12/31 21:50:56;;;;;;;35.37;25.53;;;;;;;5.48;100.00;95976.19;6215490;23;20174;-91
2020/12/31 21:53:23;;;;;;;31.33;24.60;;;;;;;5.39;100.00;95976.97;6215540;23;20239;-89
2020/12/31 21:55:50;;;;;;;37.13;25.53;;;;;;;5.14;100.00;95970.47;6217846;23;20201;-90
2020/12/31 21:58:37;;;;;;;79.37;58.43;;;;;;;4.93;100.00;95972.31;6215984;23;20174;-89
2020/12/31 22:01:04;;;;;;;44.57;33.03;;;;;;;4.88;100.00;95964.06;6216036;23;20162;-92
2020/12/31 22:03:30;;;;;;;54.63;41.33;;;;;;;4.76;100.00;95971.16;6215452;23;20174;-91
2020/12/31 22:05:57;;;;;;;132.37;111.30;;;;;;;4.70;100.00;95969.06;6214887;23;20166;-90
2020/12/31 22:08:24;;;;;;;38.30;33.00;;;;;;;4.72;100.00;95972.38;6215108;23;20232;-88
2020/12/31 22:10:51;;;;;;;37.70;22.80;;;;;;;4.96;100.00;95980.69;6216828;23;20170;-88
2020/12/31 22:13:17;;;;;;;51.93;36.80;;;;;;;4.83;100.00;95974.88;6215202;23;20173;-88
2020/12/31 22:15:45;;;;;;;37.87;25.60;;;;;;;4.85;100.00;95983.41;6216962;23;20201;-88
2020/12/31 22:18:12;;;;;;;54.57;39.87;;;;;;;5.22;100.00;95980.22;6214712;23;20174;-88
2020/12/31 22:20:39;;;;;;;29.90;24.73;;;;;;;5.06;100.00;95985.09;6215079;23;20181;-89
2020/12/31 22:23:06;;;;;;;38.67;23.37;;;;;;;5.26;100.00;95986.81;6214442;23;20892;-88
2020/12/31 22:25:35;;;;;;;39.70;33.93;;;;;;;5.31;100.00;95987.25;6215012;23;20177;-90
2020/12/31 22:28:02;;;;;;;48.07;34.87;;;;;;;5.32;100.00;95986.28;6215380;23;20240;-89
2020/12/31 22:30:29;;;;;;;50.33;36.70;;;;;;;5.24;100.00;95983.53;6214421;23;20170;-89
2020/12/31 22:32:57;;;;;;;55.90;45.77;;;;;;;5.08;100.00;95983.19;6216019;23;20543;-89
2020/12/31 22:35:24;;;;;;;59.93;47.07;;;;;;;4.90;100.00;95986.41;6214933;23;20484;-89
2020/12/31 22:37:50;;;;;;;44.63;36.83;;;;;;;4.76;100.00;95984.16;6215473;23;20174;-90
2020/12/31 22:40:18;;;;;;;64.77;48.00;;;;;;;5.00;100.00;95982.06;6214897;23;20174;-91
2020/12/31 22:42:45;;;;;;;64.53;45.37;;;;;;;4.81;100.00;95974.16;6214373;23;20185;-89
2020/12/31 22:45:16;;;;;;;247.80;139.17;;;;;;;4.70;100.00;95969.88;6214774;23;20174;-91
2020/12/31 22:47:43;;;;;;;208.03;120.43;;;;;;;4.89;100.00;95971.75;6214561;23;20253;-88
2020/12/31 22:50:11;;;;;;;138.63;80.30;;;;;;;5.19;100.00;95976.09;6214628;23;20171;-90
2020/12/31 22:52:38;;;;;;;81.87;52.77;;;;;;;5.06;100.00;95975.53;6215156;23;20181;-89
2020/12/31 22:55:06;;;;;;;65.57;44.93;;;;;;;4.75;100.00;95977.31;6214976;23;20194;-90